sensor_id;sensor_type;location;lat;lon;timestamp;P1;durP1;ratioP1;P2;durP2;ratioP2
10582;SDS011;33679;51.218;6.786;2023-05-17T00:00:01;8.73;;;2.33;;
10582;SDS011;33679;51.218;6.786;2023-05-17T00:02:37;5.37;;;2.10;;
10582;SDS011;33679;51.218;6.786;2023-05-17T00:05:10;4.90;;;1.97;;
10582;SDS011;33679;51.218;6.786;2023-05-17T00:07:43;3.80;;;2.17;;
10582;SDS011;33679;51.218;6.786;2023-05-17T00:10:16;2.43;;;1.77;;
10582;SDS011;33679;51.218;6.786;2023-05-17T00:12:48;2.83;;;2.00;;
10582;SDS011;33679;51.218;6.786;2023-05-17T00:15:23;4.23;;;2.20;;
10582;SDS011;33679;51.218;6.786;2023-05-17T00:17:58;4.23;;;1.93;;
10582;SDS011;33679;51.218;6.786;2023-05-17T00:20:31;4.67;;;2.30;;
10582;SDS011;33679;51.218;6.786;2023-05-17T00:23:03;5.40;;;2.37;;
10582;SDS011;33679;51.218;6.786;2023-05-17T00:25:36;4.13;;;2.27;;
10582;SDS011;33679;51.218;6.786;2023-05-17T00:28:08;4.70;;;2.17;;
10582;SDS011;33679;51.218;6.786;2023-05-17T00:30:40;5.03;;;2.07;;
10582;SDS011;33679;51.218;6.786;2023-05-17T00:33:14;4.57;;;2.40;;
10582;SDS011;33679;51.218;6.786;2023-05-17T00:35:46;3.77;;;2.20;;
10582;SDS011;33679;51.218;6.786;2023-05-17T00:38:18;4.83;;;2.30;;
10582;SDS011;33679;51.218;6.786;2023-05-17T00:40:52;4.93;;;1.73;;
10582;SDS011;33679;51.218;6.786;2023-05-17T00:43:24;5.53;;;2.40;;
10582;SDS011;33679;51.218;6.786;2023-05-17T00:45:56;5.60;;;2.60;;
10582;SDS011;33679;51.218;6.786;2023-05-17T00:48:32;5.23;;;2.37;;
10582;SDS011;33679;51.218;6.786;2023-05-17T00:51:06;5.60;;;2.67;;
10582;SDS011;33679;51.218;6.786;2023-05-17T00:53:38;7.87;;;2.50;;
10582;SDS011;33679;51.218;6.786;2023-05-17T00:56:11;4.23;;;2.23;;
10582;SDS011;33679;51.218;6.786;2023-05-17T00:58:43;2.97;;;2.20;;
10582;SDS011;33679;51.218;6.786;2023-05-17T01:01:19;9.20;;;3.50;;
10582;SDS011;33679;51.218;6.786;2023-05-17T01:03:53;4.93;;;2.20;;
10582;SDS011;33679;51.218;6.786;2023-05-17T01:06:27;4.43;;;2.70;;
10582;SDS011;33679;51.218;6.786;2023-05-17T01:08:59;5.07;;;2.17;;
10582;SDS011;33679;51.218;6.786;2023-05-17T01:11:38;8.30;;;3.30;;
10582;SDS011;33679;51.218;6.786;2023-05-17T01:14:19;6.50;;;2.90;;
10582;SDS011;33679;51.218;6.786;2023-05-17T01:17:01;3.90;;;2.87;;
10582;SDS011;33679;51.218;6.786;2023-05-17T01:19:48;5.93;;;2.50;;
10582;SDS011;33679;51.218;6.786;2023-05-17T01:22:31;9.03;;;2.13;;
10582;SDS011;33679;51.218;6.786;2023-05-17T01:25:15;6.27;;;2.47;;
10582;SDS011;33679;51.218;6.786;2023-05-17T01:27:58;5.20;;;2.30;;
10582;SDS011;33679;51.218;6.786;2023-05-17T01:30:34;4.17;;;2.53;;
10582;SDS011;33679;51.218;6.786;2023-05-17T01:33:08;6.60;;;2.33;;
10582;SDS011;33679;51.218;6.786;2023-05-17T01:35:41;8.07;;;2.67;;
10582;SDS011;33679;51.218;6.786;2023-05-17T01:38:16;3.97;;;2.40;;
10582;SDS011;33679;51.218;6.786;2023-05-17T01:40:51;6.93;;;3.30;;
10582;SDS011;33679;51.218;6.786;2023-05-17T01:43:30;3.83;;;2.30;;
10582;SDS011;33679;51.218;6.786;2023-05-17T01:46:10;6.10;;;2.70;;
10582;SDS011;33679;51.218;6.786;2023-05-17T01:48:48;3.60;;;2.60;;
10582;SDS011;33679;51.218;6.786;2023-05-17T01:51:27;6.30;;;2.30;;
10582;SDS011;33679;51.218;6.786;2023-05-17T01:54:04;5.23;;;2.30;;
10582;SDS011;33679;51.218;6.786;2023-05-17T01:56:46;2.70;;;2.40;;
10582;SDS011;33679;51.218;6.786;2023-05-17T01:59:27;5.33;;;3.20;;
10582;SDS011;33679;51.218;6.786;2023-05-17T02:02:02;4.13;;;2.33;;
10582;SDS011;33679;51.218;6.786;2023-05-17T02:04:39;8.90;;;2.63;;
10582;SDS011;33679;51.218;6.786;2023-05-17T02:07:11;6.57;;;2.70;;
10582;SDS011;33679;51.218;6.786;2023-05-17T02:09:44;6.80;;;2.90;;
10582;SDS011;33679;51.218;6.786;2023-05-17T02:12:17;6.30;;;2.77;;
10582;SDS011;33679;51.218;6.786;2023-05-17T02:14:50;5.73;;;3.20;;
10582;SDS011;33679;51.218;6.786;2023-05-17T02:17:23;8.27;;;2.77;;
10582;SDS011;33679;51.218;6.786;2023-05-17T02:19:55;7.07;;;3.63;;
10582;SDS011;33679;51.218;6.786;2023-05-17T02:22:27;8.53;;;3.27;;
10582;SDS011;33679;51.218;6.786;2023-05-17T02:25:01;6.87;;;2.60;;
10582;SDS011;33679;51.218;6.786;2023-05-17T02:27:34;6.43;;;3.03;;
10582;SDS011;33679;51.218;6.786;2023-05-17T02:30:08;6.27;;;3.20;;
10582;SDS011;33679;51.218;6.786;2023-05-17T02:32:43;5.60;;;3.10;;
10582;SDS011;33679;51.218;6.786;2023-05-17T02:35:17;11.40;;;3.47;;
10582;SDS011;33679;51.218;6.786;2023-05-17T02:37:49;3.10;;;2.43;;
10582;SDS011;33679;51.218;6.786;2023-05-17T02:40:22;6.60;;;2.97;;
10582;SDS011;33679;51.218;6.786;2023-05-17T02:42:55;8.67;;;2.90;;
10582;SDS011;33679;51.218;6.786;2023-05-17T02:45:29;5.50;;;2.70;;
10582;SDS011;33679;51.218;6.786;2023-05-17T02:48:04;4.90;;;2.67;;
10582;SDS011;33679;51.218;6.786;2023-05-17T02:50:37;5.30;;;2.60;;
10582;SDS011;33679;51.218;6.786;2023-05-17T02:53:09;9.93;;;3.63;;
10582;SDS011;33679;51.218;6.786;2023-05-17T02:55:41;4.77;;;2.80;;
10582;SDS011;33679;51.218;6.786;2023-05-17T02:58:13;9.67;;;3.57;;
10582;SDS011;33679;51.218;6.786;2023-05-17T03:00:47;9.07;;;3.20;;
10582;SDS011;33679;51.218;6.786;2023-05-17T03:03:20;6.30;;;3.30;;
10582;SDS011;33679;51.218;6.786;2023-05-17T03:05:52;7.93;;;3.60;;
10582;SDS011;33679;51.218;6.786;2023-05-17T03:08:26;9.37;;;4.10;;
10582;SDS011;33679;51.218;6.786;2023-05-17T03:10:59;10.77;;;3.93;;
10582;SDS011;33679;51.218;6.786;2023-05-17T03:13:31;9.00;;;4.37;;
10582;SDS011;33679;51.218;6.786;2023-05-17T03:16:07;8.00;;;4.27;;
10582;SDS011;33679;51.218;6.786;2023-05-17T03:18:39;10.57;;;3.63;;
10582;SDS011;33679;51.218;6.786;2023-05-17T03:21:12;6.00;;;3.37;;
10582;SDS011;33679;51.218;6.786;2023-05-17T03:23:44;7.37;;;3.73;;
10582;SDS011;33679;51.218;6.786;2023-05-17T03:26:18;6.97;;;3.60;;
10582;SDS011;33679;51.218;6.786;2023-05-17T03:28:53;7.27;;;4.03;;
10582;SDS011;33679;51.218;6.786;2023-05-17T03:31:27;7.70;;;3.57;;
10582;SDS011;33679;51.218;6.786;2023-05-17T03:34:00;8.10;;;3.97;;
10582;SDS011;33679;51.218;6.786;2023-05-17T03:36:33;7.60;;;3.90;;
10582;SDS011;33679;51.218;6.786;2023-05-17T03:39:05;7.90;;;3.73;;
10582;SDS011;33679;51.218;6.786;2023-05-17T03:41:39;7.67;;;4.63;;
10582;SDS011;33679;51.218;6.786;2023-05-17T03:44:12;7.27;;;3.33;;
10582;SDS011;33679;51.218;6.786;2023-05-17T03:46:46;10.53;;;3.47;;
10582;SDS011;33679;51.218;6.786;2023-05-17T03:49:19;9.80;;;4.33;;
10582;SDS011;33679;51.218;6.786;2023-05-17T03:51:56;5.80;;;3.90;;
10582;SDS011;33679;51.218;6.786;2023-05-17T03:54:28;8.67;;;4.33;;
10582;SDS011;33679;51.218;6.786;2023-05-17T03:57:00;5.10;;;3.40;;
10582;SDS011;33679;51.218;6.786;2023-05-17T03:59:34;6.50;;;3.73;;
10582;SDS011;33679;51.218;6.786;2023-05-17T04:02:10;14.83;;;4.83;;
10582;SDS011;33679;51.218;6.786;2023-05-17T04:04:47;7.10;;;4.43;;
10582;SDS011;33679;51.218;6.786;2023-05-17T04:07:24;7.43;;;3.90;;
10582;SDS011;33679;51.218;6.786;2023-05-17T04:09:56;7.60;;;4.03;;
10582;SDS011;33679;51.218;6.786;2023-05-17T04:12:33;8.73;;;4.50;;
10582;SDS011;33679;51.218;6.786;2023-05-17T04:15:08;8.53;;;4.47;;
10582;SDS011;33679;51.218;6.786;2023-05-17T04:17:44;9.37;;;5.17;;
10582;SDS011;33679;51.218;6.786;2023-05-17T04:20:19;9.30;;;4.70;;
10582;SDS011;33679;51.218;6.786;2023-05-17T04:22:53;15.23;;;4.77;;
10582;SDS011;33679;51.218;6.786;2023-05-17T04:25:27;14.80;;;4.97;;
10582;SDS011;33679;51.218;6.786;2023-05-17T04:28:00;6.87;;;4.20;;
10582;SDS011;33679;51.218;6.786;2023-05-17T04:30:33;10.43;;;4.30;;
10582;SDS011;33679;51.218;6.786;2023-05-17T04:33:07;9.17;;;4.53;;
10582;SDS011;33679;51.218;6.786;2023-05-17T04:35:44;10.90;;;4.53;;
10582;SDS011;33679;51.218;6.786;2023-05-17T04:38:17;8.60;;;3.60;;
10582;SDS011;33679;51.218;6.786;2023-05-17T04:40:49;13.83;;;4.90;;
10582;SDS011;33679;51.218;6.786;2023-05-17T04:43:25;6.53;;;4.30;;
10582;SDS011;33679;51.218;6.786;2023-05-17T04:45:58;9.13;;;4.90;;
10582;SDS011;33679;51.218;6.786;2023-05-17T04:48:33;13.83;;;4.77;;
10582;SDS011;33679;51.218;6.786;2023-05-17T04:51:08;10.67;;;4.87;;
10582;SDS011;33679;51.218;6.786;2023-05-17T04:53:41;11.07;;;4.83;;
10582;SDS011;33679;51.218;6.786;2023-05-17T04:56:18;10.17;;;4.80;;
10582;SDS011;33679;51.218;6.786;2023-05-17T04:58:53;12.63;;;4.90;;
10582;SDS011;33679;51.218;6.786;2023-05-17T05:01:25;14.40;;;4.87;;
10582;SDS011;33679;51.218;6.786;2023-05-17T05:04:02;14.10;;;5.53;;
10582;SDS011;33679;51.218;6.786;2023-05-17T05:06:42;10.77;;;5.00;;
10582;SDS011;33679;51.218;6.786;2023-05-17T05:09:15;10.30;;;5.37;;
10582;SDS011;33679;51.218;6.786;2023-05-17T05:11:48;11.27;;;4.90;;
10582;SDS011;33679;51.218;6.786;2023-05-17T05:14:21;13.20;;;5.37;;
10582;SDS011;33679;51.218;6.786;2023-05-17T05:16:53;11.33;;;5.97;;
10582;SDS011;33679;51.218;6.786;2023-05-17T05:19:28;11.37;;;5.33;;
10582;SDS011;33679;51.218;6.786;2023-05-17T05:22:05;13.63;;;5.80;;
10582;SDS011;33679;51.218;6.786;2023-05-17T05:24:39;15.30;;;7.00;;
10582;SDS011;33679;51.218;6.786;2023-05-17T05:27:12;15.77;;;6.10;;
10582;SDS011;33679;51.218;6.786;2023-05-17T05:29:46;13.10;;;7.17;;
10582;SDS011;33679;51.218;6.786;2023-05-17T05:32:19;16.23;;;6.63;;
10582;SDS011;33679;51.218;6.786;2023-05-17T05:34:53;14.63;;;6.90;;
10582;SDS011;33679;51.218;6.786;2023-05-17T05:37:26;23.87;;;9.70;;
10582;SDS011;33679;51.218;6.786;2023-05-17T05:40:00;16.70;;;8.30;;
10582;SDS011;33679;51.218;6.786;2023-05-17T05:42:37;14.13;;;7.77;;
10582;SDS011;33679;51.218;6.786;2023-05-17T05:45:10;20.50;;;9.10;;
10582;SDS011;33679;51.218;6.786;2023-05-17T05:47:47;18.43;;;7.43;;
10582;SDS011;33679;51.218;6.786;2023-05-17T05:50:24;16.00;;;9.27;;
10582;SDS011;33679;51.218;6.786;2023-05-17T05:53:02;15.40;;;7.20;;
10582;SDS011;33679;51.218;6.786;2023-05-17T05:55:38;15.00;;;8.40;;
10582;SDS011;33679;51.218;6.786;2023-05-17T05:58:11;15.53;;;7.23;;
10582;SDS011;33679;51.218;6.786;2023-05-17T06:00:44;18.30;;;7.83;;
10582;SDS011;33679;51.218;6.786;2023-05-17T06:03:16;16.70;;;7.43;;
10582;SDS011;33679;51.218;6.786;2023-05-17T06:05:56;19.30;;;7.40;;
10582;SDS011;33679;51.218;6.786;2023-05-17T06:08:28;17.83;;;7.93;;
10582;SDS011;33679;51.218;6.786;2023-05-17T06:11:06;16.90;;;7.33;;
10582;SDS011;33679;51.218;6.786;2023-05-17T06:13:38;19.50;;;6.43;;
10582;SDS011;33679;51.218;6.786;2023-05-17T06:16:11;14.50;;;6.50;;
10582;SDS011;33679;51.218;6.786;2023-05-17T06:18:47;17.57;;;6.83;;
10582;SDS011;33679;51.218;6.786;2023-05-17T06:21:28;16.67;;;6.60;;
10582;SDS011;33679;51.218;6.786;2023-05-17T06:24:07;13.17;;;6.10;;
10582;SDS011;33679;51.218;6.786;2023-05-17T06:26:44;13.40;;;6.10;;
10582;SDS011;33679;51.218;6.786;2023-05-17T06:29:21;14.10;;;6.60;;
10582;SDS011;33679;51.218;6.786;2023-05-17T06:31:54;13.83;;;4.87;;
10582;SDS011;33679;51.218;6.786;2023-05-17T06:34:31;7.73;;;4.53;;
10582;SDS011;33679;51.218;6.786;2023-05-17T06:37:07;9.80;;;4.27;;
10582;SDS011;33679;51.218;6.786;2023-05-17T06:39:41;12.13;;;5.03;;
10582;SDS011;33679;51.218;6.786;2023-05-17T06:42:15;14.30;;;4.30;;
10582;SDS011;33679;51.218;6.786;2023-05-17T06:44:48;11.80;;;4.17;;
10582;SDS011;33679;51.218;6.786;2023-05-17T06:47:20;7.33;;;3.27;;
10582;SDS011;33679;51.218;6.786;2023-05-17T06:49:55;16.50;;;4.97;;
10582;SDS011;33679;51.218;6.786;2023-05-17T06:52:30;10.30;;;3.60;;
10582;SDS011;33679;51.218;6.786;2023-05-17T06:55:06;7.30;;;3.00;;
10582;SDS011;33679;51.218;6.786;2023-05-17T06:57:42;5.90;;;2.80;;
10582;SDS011;33679;51.218;6.786;2023-05-17T07:00:16;10.73;;;3.67;;
10582;SDS011;33679;51.218;6.786;2023-05-17T07:02:51;8.60;;;3.17;;
10582;SDS011;33679;51.218;6.786;2023-05-17T07:05:26;8.00;;;2.33;;
10582;SDS011;33679;51.218;6.786;2023-05-17T07:08:01;8.63;;;3.00;;
10582;SDS011;33679;51.218;6.786;2023-05-17T07:10:34;6.37;;;2.40;;
10582;SDS011;33679;51.218;6.786;2023-05-17T07:13:10;7.87;;;2.33;;
10582;SDS011;33679;51.218;6.786;2023-05-17T07:15:43;6.17;;;2.33;;
10582;SDS011;33679;51.218;6.786;2023-05-17T07:18:18;6.30;;;2.80;;
10582;SDS011;33679;51.218;6.786;2023-05-17T07:20:52;6.73;;;2.30;;
10582;SDS011;33679;51.218;6.786;2023-05-17T07:23:27;5.60;;;2.50;;
10582;SDS011;33679;51.218;6.786;2023-05-17T07:26:00;5.17;;;1.90;;
10582;SDS011;33679;51.218;6.786;2023-05-17T07:28:38;4.73;;;1.90;;
10582;SDS011;33679;51.218;6.786;2023-05-17T07:31:10;4.20;;;1.93;;
10582;SDS011;33679;51.218;6.786;2023-05-17T07:33:48;4.67;;;1.80;;
10582;SDS011;33679;51.218;6.786;2023-05-17T07:36:22;4.40;;;1.80;;
10582;SDS011;33679;51.218;6.786;2023-05-17T07:38:58;6.03;;;1.77;;
10582;SDS011;33679;51.218;6.786;2023-05-17T07:41:35;10.53;;;2.73;;
10582;SDS011;33679;51.218;6.786;2023-05-17T07:44:10;4.30;;;2.27;;
10582;SDS011;33679;51.218;6.786;2023-05-17T07:46:45;8.43;;;2.40;;
10582;SDS011;33679;51.218;6.786;2023-05-17T07:49:18;6.27;;;1.87;;
10582;SDS011;33679;51.218;6.786;2023-05-17T07:51:53;4.47;;;2.17;;
10582;SDS011;33679;51.218;6.786;2023-05-17T07:54:27;8.33;;;2.17;;
10582;SDS011;33679;51.218;6.786;2023-05-17T07:57:02;6.57;;;1.97;;
10582;SDS011;33679;51.218;6.786;2023-05-17T07:59:36;5.10;;;1.83;;
10582;SDS011;33679;51.218;6.786;2023-05-17T08:02:09;10.40;;;2.10;;
10582;SDS011;33679;51.218;6.786;2023-05-17T08:04:42;5.03;;;2.13;;
10582;SDS011;33679;51.218;6.786;2023-05-17T08:07:15;8.40;;;2.60;;
10582;SDS011;33679;51.218;6.786;2023-05-17T08:09:49;16.37;;;3.20;;
10582;SDS011;33679;51.218;6.786;2023-05-17T08:12:23;5.47;;;2.00;;
10582;SDS011;33679;51.218;6.786;2023-05-17T08:14:57;6.77;;;2.17;;
10582;SDS011;33679;51.218;6.786;2023-05-17T08:17:32;5.87;;;2.33;;
10582;SDS011;33679;51.218;6.786;2023-05-17T08:20:07;9.87;;;2.80;;
10582;SDS011;33679;51.218;6.786;2023-05-17T08:22:42;4.07;;;2.37;;
10582;SDS011;33679;51.218;6.786;2023-05-17T08:25:19;11.33;;;2.50;;
10582;SDS011;33679;51.218;6.786;2023-05-17T08:27:51;6.23;;;2.70;;
10582;SDS011;33679;51.218;6.786;2023-05-17T08:30:25;5.33;;;2.40;;
10582;SDS011;33679;51.218;6.786;2023-05-17T08:33:00;7.00;;;2.30;;
10582;SDS011;33679;51.218;6.786;2023-05-17T08:35:35;11.87;;;2.43;;
10582;SDS011;33679;51.218;6.786;2023-05-17T08:38:09;8.47;;;2.50;;
10582;SDS011;33679;51.218;6.786;2023-05-17T08:40:50;4.93;;;1.90;;
10582;SDS011;33679;51.218;6.786;2023-05-17T08:43:25;9.13;;;2.77;;
10582;SDS011;33679;51.218;6.786;2023-05-17T08:46:05;5.37;;;3.50;;
10582;SDS011;33679;51.218;6.786;2023-05-17T08:48:39;5.80;;;2.53;;
10582;SDS011;33679;51.218;6.786;2023-05-17T08:51:15;7.97;;;2.87;;
10582;SDS011;33679;51.218;6.786;2023-05-17T08:53:53;11.30;;;3.87;;
10582;SDS011;33679;51.218;6.786;2023-05-17T08:56:27;5.50;;;3.00;;
10582;SDS011;33679;51.218;6.786;2023-05-17T08:59:02;9.63;;;3.50;;
10582;SDS011;33679;51.218;6.786;2023-05-17T09:01:37;8.00;;;3.40;;
10582;SDS011;33679;51.218;6.786;2023-05-17T09:04:17;9.97;;;3.77;;
10582;SDS011;33679;51.218;6.786;2023-05-17T09:06:53;6.97;;;3.80;;
10582;SDS011;33679;51.218;6.786;2023-05-17T09:09:25;18.00;;;3.63;;
10582;SDS011;33679;51.218;6.786;2023-05-17T09:11:59;7.97;;;2.70;;
10582;SDS011;33679;51.218;6.786;2023-05-17T09:14:36;6.87;;;2.80;;
10582;SDS011;33679;51.218;6.786;2023-05-17T09:17:12;11.33;;;3.67;;
10582;SDS011;33679;51.218;6.786;2023-05-17T09:19:48;7.93;;;3.60;;
10582;SDS011;33679;51.218;6.786;2023-05-17T09:22:23;8.70;;;2.80;;
10582;SDS011;33679;51.218;6.786;2023-05-17T09:24:56;7.77;;;2.30;;
10582;SDS011;33679;51.218;6.786;2023-05-17T09:27:33;4.10;;;2.10;;
10582;SDS011;33679;51.218;6.786;2023-05-17T09:30:08;9.00;;;1.90;;
10582;SDS011;33679;51.218;6.786;2023-05-17T09:32:43;3.60;;;1.93;;
10582;SDS011;33679;51.218;6.786;2023-05-17T09:35:16;12.50;;;2.63;;
10582;SDS011;33679;51.218;6.786;2023-05-17T09:37:48;9.17;;;2.60;;
10582;SDS011;33679;51.218;6.786;2023-05-17T09:40:22;4.50;;;2.70;;
10582;SDS011;33679;51.218;6.786;2023-05-17T09:43:00;8.63;;;2.87;;
10582;SDS011;33679;51.218;6.786;2023-05-17T09:45:33;9.80;;;3.43;;
10582;SDS011;33679;51.218;6.786;2023-05-17T09:48:11;8.10;;;3.73;;
10582;SDS011;33679;51.218;6.786;2023-05-17T09:50:48;5.60;;;3.23;;
10582;SDS011;33679;51.218;6.786;2023-05-17T09:53:23;7.73;;;3.07;;
10582;SDS011;33679;51.218;6.786;2023-05-17T09:55:58;8.43;;;3.07;;
10582;SDS011;33679;51.218;6.786;2023-05-17T09:58:36;6.40;;;2.43;;
10582;SDS011;33679;51.218;6.786;2023-05-17T10:01:09;12.40;;;2.93;;
10582;SDS011;33679;51.218;6.786;2023-05-17T10:03:45;6.50;;;2.63;;
10582;SDS011;33679;51.218;6.786;2023-05-17T10:06:22;5.90;;;2.03;;
10582;SDS011;33679;51.218;6.786;2023-05-17T10:09:21;3.50;;;2.30;;
10582;SDS011;33679;51.218;6.786;2023-05-17T10:11:55;7.80;;;2.73;;
10582;SDS011;33679;51.218;6.786;2023-05-17T10:14:31;8.87;;;3.83;;
10582;SDS011;33679;51.218;6.786;2023-05-17T10:17:05;6.30;;;3.33;;
10582;SDS011;33679;51.218;6.786;2023-05-17T10:19:39;9.63;;;3.57;;
10582;SDS011;33679;51.218;6.786;2023-05-17T10:22:12;6.70;;;3.40;;
10582;SDS011;33679;51.218;6.786;2023-05-17T10:24:46;3.30;;;2.50;;
10582;SDS011;33679;51.218;6.786;2023-05-17T10:27:21;6.10;;;1.90;;
10582;SDS011;33679;51.218;6.786;2023-05-17T10:29:57;7.50;;;3.13;;
10582;SDS011;33679;51.218;6.786;2023-05-17T10:32:30;5.30;;;2.57;;
10582;SDS011;33679;51.218;6.786;2023-05-17T10:35:06;7.57;;;3.13;;
10582;SDS011;33679;51.218;6.786;2023-05-17T10:37:39;5.20;;;2.50;;
10582;SDS011;33679;51.218;6.786;2023-05-17T10:40:12;6.90;;;2.80;;
10582;SDS011;33679;51.218;6.786;2023-05-17T10:42:51;7.70;;;2.73;;
10582;SDS011;33679;51.218;6.786;2023-05-17T10:45:27;7.67;;;3.00;;
10582;SDS011;33679;51.218;6.786;2023-05-17T10:48:04;5.90;;;2.30;;
10582;SDS011;33679;51.218;6.786;2023-05-17T10:50:38;4.63;;;2.33;;
10582;SDS011;33679;51.218;6.786;2023-05-17T10:53:11;5.57;;;2.00;;
10582;SDS011;33679;51.218;6.786;2023-05-17T10:55:44;5.83;;;2.20;;
10582;SDS011;33679;51.218;6.786;2023-05-17T10:58:17;8.77;;;2.60;;
10582;SDS011;33679;51.218;6.786;2023-05-17T11:00:54;9.70;;;2.73;;
10582;SDS011;33679;51.218;6.786;2023-05-17T11:03:31;4.90;;;2.13;;
10582;SDS011;33679;51.218;6.786;2023-05-17T11:06:16;5.90;;;3.53;;
10582;SDS011;33679;51.218;6.786;2023-05-17T11:09:06;8.80;;;3.30;;
10582;SDS011;33679;51.218;6.786;2023-05-17T11:12:06;4.90;;;4.00;;
10582;SDS011;33679;51.218;6.786;2023-05-17T11:14:46;6.50;;;3.47;;
10582;SDS011;33679;51.218;6.786;2023-05-17T11:17:23;7.73;;;2.80;;
10582;SDS011;33679;51.218;6.786;2023-05-17T11:20:06;10.20;;;3.50;;
10582;SDS011;33679;51.218;6.786;2023-05-17T11:22:41;5.03;;;2.70;;
10582;SDS011;33679;51.218;6.786;2023-05-17T11:25:29;6.10;;;2.83;;
10582;SDS011;33679;51.218;6.786;2023-05-17T11:28:05;3.33;;;2.63;;
10582;SDS011;33679;51.218;6.786;2023-05-17T11:30:40;5.57;;;3.20;;
10582;SDS011;33679;51.218;6.786;2023-05-17T11:33:22;4.93;;;2.90;;
10582;SDS011;33679;51.218;6.786;2023-05-17T11:36:17;7.33;;;3.00;;
10582;SDS011;33679;51.218;6.786;2023-05-17T11:41:47;4.80;;;2.67;;
10582;SDS011;33679;51.218;6.786;2023-05-17T11:44:23;3.63;;;2.33;;
10582;SDS011;33679;51.218;6.786;2023-05-17T11:47:01;8.67;;;3.23;;
10582;SDS011;33679;51.218;6.786;2023-05-17T11:49:40;5.57;;;1.90;;
10582;SDS011;33679;51.218;6.786;2023-05-17T11:52:15;7.13;;;2.30;;
10582;SDS011;33679;51.218;6.786;2023-05-17T11:55:02;3.07;;;2.27;;
10582;SDS011;33679;51.218;6.786;2023-05-17T11:58:08;4.90;;;2.30;;
10582;SDS011;33679;51.218;6.786;2023-05-17T12:00:42;5.80;;;2.67;;
10582;SDS011;33679;51.218;6.786;2023-05-17T12:03:18;4.83;;;2.77;;
10582;SDS011;33679;51.218;6.786;2023-05-17T12:06:01;5.07;;;3.10;;
10582;SDS011;33679;51.218;6.786;2023-05-17T12:08:41;3.73;;;2.53;;
10582;SDS011;33679;51.218;6.786;2023-05-17T12:11:17;5.00;;;2.40;;
10582;SDS011;33679;51.218;6.786;2023-05-17T12:13:52;4.37;;;2.50;;
10582;SDS011;33679;51.218;6.786;2023-05-17T12:16:24;5.87;;;2.27;;
10582;SDS011;33679;51.218;6.786;2023-05-17T12:18:58;7.30;;;2.83;;
10582;SDS011;33679;51.218;6.786;2023-05-17T12:21:38;4.43;;;2.10;;
10582;SDS011;33679;51.218;6.786;2023-05-17T12:24:10;4.83;;;2.13;;
10582;SDS011;33679;51.218;6.786;2023-05-17T12:26:46;3.93;;;2.20;;
10582;SDS011;33679;51.218;6.786;2023-05-17T12:29:28;7.90;;;3.03;;
10582;SDS011;33679;51.218;6.786;2023-05-17T12:32:04;3.53;;;3.00;;
10582;SDS011;33679;51.218;6.786;2023-05-17T12:34:38;5.83;;;2.73;;
10582;SDS011;33679;51.218;6.786;2023-05-17T12:37:14;5.63;;;2.47;;
10582;SDS011;33679;51.218;6.786;2023-05-17T12:39:47;7.53;;;3.00;;
10582;SDS011;33679;51.218;6.786;2023-05-17T12:42:21;4.90;;;2.63;;
10582;SDS011;33679;51.218;6.786;2023-05-17T12:44:53;4.40;;;2.57;;
10582;SDS011;33679;51.218;6.786;2023-05-17T12:47:29;3.80;;;2.00;;
10582;SDS011;33679;51.218;6.786;2023-05-17T12:50:02;4.20;;;2.43;;
10582;SDS011;33679;51.218;6.786;2023-05-17T12:52:37;3.83;;;2.60;;
10582;SDS011;33679;51.218;6.786;2023-05-17T12:55:12;5.67;;;3.00;;
10582;SDS011;33679;51.218;6.786;2023-05-17T12:57:49;4.73;;;2.70;;
10582;SDS011;33679;51.218;6.786;2023-05-17T13:00:23;5.83;;;2.77;;
10582;SDS011;33679;51.218;6.786;2023-05-17T13:02:56;4.10;;;2.30;;
10582;SDS011;33679;51.218;6.786;2023-05-17T13:05:28;4.60;;;2.47;;
10582;SDS011;33679;51.218;6.786;2023-05-17T13:11:04;5.87;;;2.70;;
10582;SDS011;33679;51.218;6.786;2023-05-17T13:13:40;4.80;;;2.43;;
10582;SDS011;33679;51.218;6.786;2023-05-17T13:16:13;4.00;;;2.73;;
10582;SDS011;33679;51.218;6.786;2023-05-17T13:18:46;6.20;;;2.63;;
10582;SDS011;33679;51.218;6.786;2023-05-17T13:21:19;5.17;;;2.30;;
10582;SDS011;33679;51.218;6.786;2023-05-17T13:23:54;8.20;;;2.97;;
10582;SDS011;33679;51.218;6.786;2023-05-17T13:26:26;7.73;;;2.80;;
10582;SDS011;33679;51.218;6.786;2023-05-17T13:28:59;5.83;;;2.83;;
10582;SDS011;33679;51.218;6.786;2023-05-17T13:31:31;5.00;;;2.20;;
10582;SDS011;33679;51.218;6.786;2023-05-17T13:34:04;5.83;;;2.50;;
10582;SDS011;33679;51.218;6.786;2023-05-17T13:36:36;11.27;;;3.40;;
10582;SDS011;33679;51.218;6.786;2023-05-17T13:39:12;5.00;;;2.90;;
10582;SDS011;33679;51.218;6.786;2023-05-17T13:41:45;11.23;;;2.87;;
10582;SDS011;33679;51.218;6.786;2023-05-17T13:44:18;7.10;;;2.23;;
10582;SDS011;33679;51.218;6.786;2023-05-17T13:46:52;3.90;;;2.07;;
10582;SDS011;33679;51.218;6.786;2023-05-17T13:49:26;8.10;;;2.80;;
10582;SDS011;33679;51.218;6.786;2023-05-17T13:51:59;4.40;;;2.40;;
10582;SDS011;33679;51.218;6.786;2023-05-17T13:54:32;6.90;;;2.77;;
10582;SDS011;33679;51.218;6.786;2023-05-17T13:57:07;10.63;;;3.73;;
10582;SDS011;33679;51.218;6.786;2023-05-17T13:59:40;4.70;;;3.10;;
10582;SDS011;33679;51.218;6.786;2023-05-17T14:02:14;6.70;;;2.70;;
10582;SDS011;33679;51.218;6.786;2023-05-17T14:04:49;4.87;;;2.07;;
10582;SDS011;33679;51.218;6.786;2023-05-17T14:07:22;7.00;;;3.10;;
10582;SDS011;33679;51.218;6.786;2023-05-17T14:09:55;4.73;;;2.60;;
10582;SDS011;33679;51.218;6.786;2023-05-17T14:12:28;5.07;;;2.57;;
10582;SDS011;33679;51.218;6.786;2023-05-17T14:15:03;5.13;;;3.03;;
10582;SDS011;33679;51.218;6.786;2023-05-17T14:17:36;7.40;;;2.50;;
10582;SDS011;33679;51.218;6.786;2023-05-17T14:20:08;5.60;;;2.33;;
10582;SDS011;33679;51.218;6.786;2023-05-17T14:22:44;4.23;;;2.80;;
10582;SDS011;33679;51.218;6.786;2023-05-17T14:25:18;7.03;;;2.60;;
10582;SDS011;33679;51.218;6.786;2023-05-17T14:27:51;7.47;;;2.37;;
10582;SDS011;33679;51.218;6.786;2023-05-17T14:30:24;6.90;;;2.30;;
10582;SDS011;33679;51.218;6.786;2023-05-17T14:32:56;2.90;;;2.00;;
10582;SDS011;33679;51.218;6.786;2023-05-17T14:35:29;8.73;;;2.70;;
10582;SDS011;33679;51.218;6.786;2023-05-17T14:38:02;5.47;;;2.23;;
10582;SDS011;33679;51.218;6.786;2023-05-17T14:40:39;6.93;;;2.20;;
10582;SDS011;33679;51.218;6.786;2023-05-17T14:43:11;4.80;;;2.07;;
10582;SDS011;33679;51.218;6.786;2023-05-17T14:45:45;6.13;;;2.57;;
10582;SDS011;33679;51.218;6.786;2023-05-17T14:48:18;3.70;;;1.83;;
10582;SDS011;33679;51.218;6.786;2023-05-17T14:50:50;3.77;;;2.60;;
10582;SDS011;33679;51.218;6.786;2023-05-17T14:53:23;6.07;;;2.17;;
10582;SDS011;33679;51.218;6.786;2023-05-17T14:55:59;6.50;;;2.37;;
10582;SDS011;33679;51.218;6.786;2023-05-17T14:58:32;6.20;;;2.70;;
10582;SDS011;33679;51.218;6.786;2023-05-17T15:01:05;7.00;;;2.20;;
10582;SDS011;33679;51.218;6.786;2023-05-17T15:03:38;4.83;;;2.53;;
10582;SDS011;33679;51.218;6.786;2023-05-17T15:06:11;6.00;;;2.83;;
10582;SDS011;33679;51.218;6.786;2023-05-17T15:08:46;2.43;;;1.80;;
10582;SDS011;33679;51.218;6.786;2023-05-17T15:11:23;5.23;;;2.93;;
10582;SDS011;33679;51.218;6.786;2023-05-17T15:13:55;5.30;;;2.60;;
10582;SDS011;33679;51.218;6.786;2023-05-17T15:16:30;6.87;;;2.03;;
10582;SDS011;33679;51.218;6.786;2023-05-17T15:19:03;5.73;;;2.57;;
10582;SDS011;33679;51.218;6.786;2023-05-17T15:21:36;7.17;;;2.10;;
10582;SDS011;33679;51.218;6.786;2023-05-17T15:24:11;3.27;;;1.70;;
10582;SDS011;33679;51.218;6.786;2023-05-17T15:26:46;5.87;;;2.10;;
10582;SDS011;33679;51.218;6.786;2023-05-17T15:29:18;4.10;;;2.10;;
10582;SDS011;33679;51.218;6.786;2023-05-17T15:31:51;3.43;;;1.90;;
10582;SDS011;33679;51.218;6.786;2023-05-17T15:34:23;5.57;;;2.57;;
10582;SDS011;33679;51.218;6.786;2023-05-17T15:36:56;3.10;;;2.30;;